Terminal Aerodrome Forecast
Issued by NWS

Home | Current Version | Previous Version | Graphics & Text | Print | Product List | Glossary On
Versions: 1 2 3 4 5 6 7 8 9 10 11 12 13 14 15 16 17 18 19 20 21 22 23 24 25 26
000
FTUS43 KGRB 140525
TAFRHI
TAF
KRHI 140525Z 1406/1506 19003KT P6SM SCT040 BKN100
      TEMPO 1408/1410 BKN040
     FM141200 26007KT P6SM SKC
     FM142300 27004KT P6SM SKC=

USA.gov is the U.S. government's official web portal to all federal, state and local government web resources and services.